createdAt,value
2018-05-31T00:01:56.596Z,9.57
2018-05-31T00:04:26.717Z,10.07
2018-05-31T00:06:56.118Z,10.00
2018-05-31T00:09:25.407Z,8.37
2018-05-31T00:11:54.825Z,6.53
2018-05-31T00:14:24.945Z,4.60
2018-05-31T00:16:54.303Z,6.83
2018-05-31T00:19:23.594Z,8.00
2018-05-31T00:21:52.899Z,11.30
2018-05-31T00:24:22.252Z,7.17
2018-05-31T00:26:52.373Z,9.43
2018-05-31T00:29:21.781Z,6.13
2018-05-31T00:31:51.179Z,7.47
2018-05-31T00:34:21.299Z,6.80
2018-05-31T00:36:51.365Z,7.80
2018-05-31T00:39:20.722Z,12.07
2018-05-31T00:41:50.842Z,10.20
2018-05-31T00:44:20.950Z,7.60
2018-05-31T00:46:50.364Z,9.87
2018-05-31T00:49:20.490Z,5.93
2018-05-31T00:51:49.892Z,7.67
2018-05-31T00:54:20.011Z,6.53
2018-05-31T00:56:50.136Z,7.33
2018-05-31T00:59:19.477Z,6.97
2018-05-31T01:01:48.782Z,5.10
2018-05-31T01:04:18.138Z,8.67
2018-05-31T01:06:48.207Z,8.70
2018-05-31T01:09:17.559Z,6.30
2018-05-31T01:11:47.670Z,5.40
2018-05-31T01:14:17.801Z,5.17
2018-05-31T01:16:47.862Z,6.70
2018-05-31T01:19:17.224Z,5.53
2018-05-31T01:21:47.334Z,6.77
2018-05-31T01:24:17.463Z,6.33
2018-05-31T01:26:47.583Z,6.73
2018-05-31T01:29:17.704Z,13.47
2018-05-31T01:31:47.821Z,15.90
2018-05-31T01:34:17.937Z,14.57
2018-05-31T01:36:48.065Z,12.87
2018-05-31T01:39:19.210Z,14.93
2018-05-31T01:41:49.279Z,12.57
2018-05-31T01:44:18.632Z,12.40
2018-05-31T01:46:48.037Z,13.53
2018-05-31T01:49:17.439Z,15.30
2018-05-31T01:51:47.507Z,14.53
2018-05-31T01:54:16.860Z,13.77
2018-05-31T01:56:46.981Z,8.50
2018-05-31T01:59:17.421Z,8.03
2018-05-31T02:01:47.938Z,6.97
2018-05-31T02:04:18.048Z,8.40
2018-05-31T02:06:47.461Z,8.97
2018-05-31T02:09:16.865Z,7.20
2018-05-31T02:11:46.987Z,10.93
2018-05-31T02:14:17.108Z,6.63
2018-05-31T02:16:47.225Z,8.67
2018-05-31T02:19:17.348Z,11.87
2018-05-31T02:21:47.456Z,10.10
2018-05-31T02:24:16.871Z,12.60
2018-05-31T02:26:46.992Z,10.00
2018-05-31T02:29:17.111Z,8.70
2018-05-31T02:31:46.515Z,8.53
2018-05-31T02:34:16.633Z,12.03
2018-05-31T02:36:46.755Z,12.77
2018-05-31T02:39:16.867Z,9.77
2018-05-31T02:41:47.103Z,12.10
2018-05-31T02:44:17.221Z,8.80
2018-05-31T02:46:47.337Z,10.37
2018-05-31T02:49:17.460Z,13.10
2018-05-31T02:51:47.582Z,9.17
2018-05-31T02:54:17.701Z,12.97
2018-05-31T02:56:47.821Z,13.03
2018-05-31T02:59:17.943Z,13.53
2018-05-31T03:01:48.054Z,16.33
2018-05-31T03:04:17.467Z,14.93
2018-05-31T03:06:47.589Z,13.30
2018-05-31T03:09:16.991Z,15.10
2018-05-31T03:11:47.141Z,14.13
2018-05-31T03:14:16.516Z,16.67
2018-05-31T03:16:46.636Z,10.10
2018-05-31T03:19:16.712Z,10.00
2018-05-31T03:21:46.053Z,10.90
2018-05-31T03:24:15.357Z,11.87
2018-05-31T03:26:45.479Z,11.40
2018-05-31T03:29:15.601Z,10.37
2018-05-31T03:31:45.720Z,11.63
2018-05-31T03:34:15.784Z,14.10
2018-05-31T03:36:45.089Z,14.60
2018-05-31T03:39:14.443Z,15.97
2018-05-31T03:41:44.521Z,16.73
2018-05-31T03:44:13.867Z,12.97
2018-05-31T03:46:43.989Z,12.90
2018-05-31T03:49:13.287Z,15.13
2018-05-31T03:51:43.350Z,13.60
2018-05-31T03:54:12.706Z,19.07
2018-05-31T03:56:42.828Z,14.40
2018-05-31T03:59:12.937Z,15.47
2018-05-31T04:01:42.353Z,16.20
2018-05-31T04:04:12.464Z,17.17
2018-05-31T04:06:42.593Z,15.70
2018-05-31T04:09:13.023Z,14.90
2018-05-31T04:11:43.141Z,19.87
2018-05-31T04:14:13.254Z,18.63
2018-05-31T04:16:43.383Z,13.93
2018-05-31T04:19:13.501Z,16.80
2018-05-31T04:21:43.565Z,13.90
2018-05-31T04:24:12.923Z,16.43
2018-05-31T04:26:43.032Z,11.60
2018-05-31T04:29:13.724Z,9.33
2018-05-31T04:31:43.081Z,20.37
2018-05-31T04:34:13.201Z,17.30
2018-05-31T04:36:43.320Z,14.37
2018-05-31T04:39:13.435Z,13.80
2018-05-31T04:41:43.552Z,13.83
2018-05-31T04:44:13.683Z,19.03
2018-05-31T04:46:43.084Z,19.17
2018-05-31T04:49:13.195Z,17.30
2018-05-31T04:51:42.612Z,10.37
2018-05-31T04:54:12.730Z,10.03
2018-05-31T04:56:42.796Z,10.70
2018-05-31T04:59:12.152Z,12.93
2018-05-31T05:01:42.273Z,18.80
2018-05-31T05:04:12.497Z,12.90
2018-05-31T05:06:42.614Z,16.00
2018-05-31T05:09:12.021Z,17.33
2018-05-31T05:11:42.143Z,21.03
2018-05-31T05:14:11.543Z,21.33
2018-05-31T05:16:41.668Z,22.03
2018-05-31T05:19:11.786Z,17.20
2018-05-31T05:21:41.903Z,12.60
2018-05-31T05:24:12.023Z,12.30
2018-05-31T05:26:42.145Z,8.77
2018-05-31T05:29:12.268Z,11.63
2018-05-31T05:31:41.669Z,10.33
2018-05-31T05:34:11.790Z,17.17
2018-05-31T05:36:42.015Z,16.50
2018-05-31T05:39:11.417Z,18.27
2018-05-31T05:41:41.536Z,11.80
2018-05-31T05:44:11.656Z,8.30
2018-05-31T05:46:41.002Z,8.87
2018-05-31T05:49:10.361Z,12.27
2018-05-31T05:51:40.425Z,8.47
2018-05-31T05:54:09.777Z,8.10
2018-05-31T05:56:39.068Z,9.03
2018-05-31T05:59:08.386Z,10.77
2018-05-31T06:01:38.506Z,10.07
2018-05-31T06:04:08.614Z,10.53
2018-05-31T06:06:38.030Z,8.83
2018-05-31T06:09:08.151Z,8.43
2018-05-31T06:11:38.278Z,7.07
2018-05-31T06:14:07.676Z,10.17
2018-05-31T06:16:37.744Z,8.00
2018-05-31T06:19:07.095Z,10.43
2018-05-31T06:21:37.223Z,8.57
2018-05-31T06:24:07.340Z,6.67
2018-05-31T06:26:37.459Z,8.43
2018-05-31T06:29:07.569Z,8.90
2018-05-31T06:31:37.686Z,6.90
2018-05-31T06:34:07.898Z,7.80
2018-05-31T06:36:37.325Z,7.97
2018-05-31T06:39:06.830Z,5.60
2018-05-31T06:41:36.270Z,6.37
2018-05-31T06:44:05.740Z,7.20
2018-05-31T06:46:35.148Z,6.77
2018-05-31T06:49:04.548Z,11.20
2018-05-31T06:51:33.910Z,15.33
2018-05-31T06:54:03.251Z,7.27
2018-05-31T06:56:32.641Z,11.63
2018-05-31T06:59:01.959Z,6.97
2018-05-31T07:01:31.361Z,6.60
2018-05-31T07:04:00.763Z,5.90
2018-05-31T07:06:30.065Z,8.40
2018-05-31T07:08:59.469Z,17.47
2018-05-31T07:11:28.770Z,12.80
2018-05-31T07:13:58.016Z,14.27
2018-05-31T07:16:27.374Z,9.13
2018-05-31T07:18:57.483Z,8.43
2018-05-31T07:21:26.897Z,11.30
2018-05-31T07:23:56.199Z,9.13
2018-05-31T07:26:25.502Z,6.90
2018-05-31T07:28:55.621Z,7.07
2018-05-31T07:31:24.922Z,11.73
2018-05-31T07:33:54.226Z,8.20
2018-05-31T07:36:23.626Z,10.43
2018-05-31T07:38:52.937Z,9.90
2018-05-31T07:41:23.050Z,6.80
2018-05-31T07:43:52.341Z,8.73
2018-05-31T07:46:21.758Z,11.47
2018-05-31T07:48:51.873Z,9.43
2018-05-31T07:51:21.333Z,10.50
2018-05-31T07:53:50.682Z,8.33
2018-05-31T07:56:20.084Z,7.60
2018-05-31T07:58:49.487Z,8.07
2018-05-31T08:01:19.609Z,7.07
2018-05-31T08:03:49.728Z,9.87
2018-05-31T08:06:19.133Z,8.53
2018-05-31T08:08:48.478Z,12.97
2018-05-31T08:11:17.867Z,8.40
2018-05-31T08:13:47.244Z,10.97
2018-05-31T08:16:17.360Z,12.57
2018-05-31T08:18:46.765Z,10.50
2018-05-31T08:21:16.066Z,11.97
2018-05-31T08:23:45.367Z,7.20
2018-05-31T08:26:15.488Z,8.33
2018-05-31T08:28:44.896Z,11.50
2018-05-31T08:31:15.016Z,14.57
2018-05-31T08:33:45.132Z,10.07
2018-05-31T08:36:14.536Z,13.40
2018-05-31T08:38:44.655Z,11.00
2018-05-31T08:41:14.053Z,15.53
2018-05-31T08:43:43.361Z,8.80
2018-05-31T08:46:12.763Z,7.90
2018-05-31T08:48:42.066Z,8.37
2018-05-31T08:51:11.368Z,9.93
2018-05-31T08:53:40.714Z,6.77
2018-05-31T08:56:10.072Z,7.57
2018-05-31T08:58:39.462Z,14.63
2018-05-31T09:01:08.879Z,18.53
2018-05-31T09:03:38.285Z,16.87
2018-05-31T09:06:07.534Z,15.03
2018-05-31T09:08:36.876Z,10.13
2018-05-31T09:11:06.187Z,11.93
2018-05-31T09:13:36.310Z,10.00
2018-05-31T09:16:06.432Z,10.43
2018-05-31T09:18:36.494Z,10.53
2018-05-31T09:21:05.849Z,7.87
2018-05-31T09:23:35.097Z,9.57
2018-05-31T09:26:04.411Z,7.20
2018-05-31T09:28:33.767Z,7.30
2018-05-31T09:31:03.154Z,9.13
2018-05-31T09:33:33.278Z,9.13
2018-05-31T09:36:03.342Z,12.70
2018-05-31T09:38:32.698Z,11.63
2018-05-31T09:41:02.793Z,14.10
2018-05-31T09:43:32.123Z,10.90
2018-05-31T09:46:02.241Z,9.07
2018-05-31T09:48:32.360Z,8.30
2018-05-31T09:51:02.482Z,7.10
2018-05-31T09:53:31.884Z,8.07
2018-05-31T09:56:01.187Z,7.67
2018-05-31T09:58:31.305Z,7.13
2018-05-31T10:01:00.608Z,8.37
2018-05-31T10:03:30.011Z,12.67
2018-05-31T10:06:00.131Z,10.73
2018-05-31T10:08:29.535Z,10.03
2018-05-31T10:11:00.372Z,9.70
2018-05-31T10:13:30.486Z,11.53
2018-05-31T10:15:59.801Z,7.40
2018-05-31T10:18:29.914Z,7.73
2018-05-31T10:21:00.039Z,7.60
2018-05-31T10:23:29.344Z,6.20
2018-05-31T10:25:58.743Z,12.63
2018-05-31T10:28:28.860Z,13.60
2018-05-31T10:30:58.980Z,12.70
2018-05-31T10:33:28.384Z,11.83
2018-05-31T10:35:58.506Z,12.87
2018-05-31T10:38:27.871Z,11.90
2018-05-31T10:40:57.210Z,11.17
2018-05-31T10:43:26.509Z,9.47
2018-05-31T10:45:57.343Z,8.83
2018-05-31T10:48:28.185Z,7.17
2018-05-31T10:50:57.575Z,10.93
2018-05-31T10:53:26.839Z,10.10
2018-05-31T10:55:56.133Z,9.43
2018-05-31T10:58:25.499Z,7.13
2018-05-31T11:00:55.612Z,10.07
2018-05-31T11:03:25.679Z,10.27
2018-05-31T11:05:55.019Z,10.80
2018-05-31T11:08:24.435Z,10.10
2018-05-31T11:10:53.726Z,9.70
2018-05-31T11:13:23.041Z,6.87
2018-05-31T11:15:52.445Z,5.20
2018-05-31T11:18:21.849Z,7.47
2018-05-31T11:20:51.150Z,7.13
2018-05-31T11:23:21.255Z,7.27
2018-05-31T11:25:50.571Z,5.60
2018-05-31T11:28:20.693Z,7.90
2018-05-31T11:30:50.918Z,6.40
2018-05-31T11:33:20.320Z,6.10
2018-05-31T11:35:49.721Z,6.07
2018-05-31T11:38:19.686Z,5.70
2018-05-31T11:40:49.040Z,8.03
2018-05-31T11:43:19.880Z,8.77
2018-05-31T11:45:49.224Z,8.03
2018-05-31T11:48:18.480Z,6.80
2018-05-31T11:50:48.605Z,8.40
2018-05-31T11:53:17.903Z,7.17
2018-05-31T11:55:47.306Z,8.10
2018-05-31T11:58:16.553Z,7.07
2018-05-31T12:00:45.908Z,7.70
2018-05-31T12:03:15.311Z,9.43
2018-05-31T12:05:44.602Z,8.97
2018-05-31T12:08:13.966Z,8.27
2018-05-31T12:10:43.323Z,9.80
2018-05-31T12:13:13.422Z,7.57
2018-05-31T12:15:42.739Z,7.10
2018-05-31T12:18:12.806Z,7.73
2018-05-31T12:20:42.147Z,6.07
2018-05-31T12:23:11.463Z,7.27
2018-05-31T12:25:40.867Z,6.00
2018-05-31T12:28:10.167Z,9.30
2018-05-31T12:30:39.459Z,9.50
2018-05-31T12:33:08.774Z,9.10
2018-05-31T12:35:38.889Z,8.07
2018-05-31T12:38:08.181Z,5.63
2018-05-31T12:40:37.495Z,5.03
2018-05-31T12:43:07.662Z,4.10
2018-05-31T12:45:37.015Z,4.13
2018-05-31T12:48:07.136Z,3.97
2018-05-31T12:50:36.438Z,5.73
2018-05-31T12:53:05.885Z,6.40
2018-05-31T12:55:35.189Z,5.33
2018-05-31T12:58:04.533Z,5.13
2018-05-31T13:00:33.847Z,6.50
2018-05-31T13:03:03.246Z,5.30
2018-05-31T13:05:32.540Z,4.87
2018-05-31T13:08:01.847Z,7.53
2018-05-31T13:10:31.154Z,6.13
2018-05-31T13:13:00.454Z,6.00
2018-05-31T13:15:29.800Z,5.10
2018-05-31T13:17:59.160Z,10.00
2018-05-31T13:20:28.551Z,5.93
2018-05-31T13:22:57.865Z,7.07
2018-05-31T13:25:27.166Z,6.50
2018-05-31T13:27:56.473Z,4.67
2018-05-31T13:30:25.869Z,6.03
2018-05-31T13:32:55.173Z,7.53
2018-05-31T13:35:24.473Z,5.23
2018-05-31T13:37:53.775Z,3.70
2018-05-31T13:40:23.074Z,5.87
2018-05-31T13:42:52.370Z,5.07
2018-05-31T13:45:23.213Z,7.23
2018-05-31T13:47:52.601Z,6.83
2018-05-31T13:50:21.920Z,5.23
2018-05-31T13:52:51.220Z,6.30
2018-05-31T13:55:20.521Z,5.00
2018-05-31T13:57:50.585Z,6.20
2018-05-31T14:00:19.932Z,8.40
2018-05-31T14:02:49.249Z,5.87
2018-05-31T14:05:19.365Z,6.03
2018-05-31T14:07:48.768Z,4.57
2018-05-31T14:10:18.894Z,3.70
2018-05-31T14:12:49.009Z,3.73
2018-05-31T14:15:18.416Z,4.47
2018-05-31T14:17:47.819Z,6.33
2018-05-31T14:20:17.222Z,7.90
2018-05-31T14:22:47.341Z,7.00
2018-05-31T14:25:18.164Z,9.37
2018-05-31T14:27:47.493Z,6.77
2018-05-31T14:30:17.600Z,6.53
2018-05-31T14:32:46.888Z,4.53
2018-05-31T14:35:16.260Z,5.07
2018-05-31T14:37:45.595Z,8.53
2018-05-31T14:40:15.009Z,7.13
2018-05-31T14:42:44.311Z,3.20
2018-05-31T14:45:13.717Z,10.53
2018-05-31T14:47:43.834Z,7.13
2018-05-31T14:50:13.238Z,8.07
2018-05-31T14:52:42.539Z,7.13
2018-05-31T14:55:13.376Z,8.87
2018-05-31T14:57:43.438Z,7.00
2018-05-31T15:00:12.798Z,8.87
2018-05-31T15:02:42.917Z,4.80
2018-05-31T15:05:12.218Z,8.47
2018-05-31T15:07:41.623Z,8.47
2018-05-31T15:10:10.924Z,6.83
2018-05-31T15:12:40.226Z,7.60
2018-05-31T15:15:09.531Z,9.13
2018-05-31T15:17:39.649Z,6.07
2018-05-31T15:20:09.056Z,10.40
2018-05-31T15:22:39.172Z,7.20
2018-05-31T15:25:08.575Z,11.90
2018-05-31T15:27:37.979Z,5.03
2018-05-31T15:30:07.377Z,4.63
2018-05-31T15:32:36.684Z,4.23
2018-05-31T15:35:06.088Z,4.53
2018-05-31T15:37:36.207Z,3.50
2018-05-31T15:40:05.615Z,2.07
2018-05-31T15:42:35.937Z,3.73
2018-05-31T15:45:06.046Z,2.87
2018-05-31T15:47:35.362Z,2.90
2018-05-31T15:50:04.753Z,2.83
2018-05-31T15:52:34.105Z,2.50
2018-05-31T15:55:04.388Z,3.37
2018-05-31T15:57:33.689Z,2.70
2018-05-31T16:00:03.093Z,3.30
2018-05-31T16:02:32.382Z,2.77
2018-05-31T16:05:01.798Z,2.73
2018-05-31T16:07:31.102Z,4.37
2018-05-31T16:10:00.503Z,2.67
2018-05-31T16:12:29.795Z,2.47
2018-05-31T16:14:59.211Z,3.33
2018-05-31T16:17:29.326Z,2.40
2018-05-31T16:19:58.988Z,2.20
2018-05-31T16:22:28.441Z,2.10
2018-05-31T16:24:57.748Z,3.50
2018-05-31T16:27:27.352Z,6.57
2018-05-31T16:29:56.756Z,10.33
2018-05-31T16:32:26.160Z,6.53
2018-05-31T16:34:55.464Z,11.37
2018-05-31T16:37:25.588Z,5.90
2018-05-31T16:39:55.692Z,5.40
2018-05-31T16:42:25.009Z,8.40
2018-05-31T16:44:55.126Z,5.63
2018-05-31T16:47:25.245Z,7.37
2018-05-31T16:49:54.549Z,6.57
2018-05-31T16:52:23.950Z,7.13
2018-05-31T16:54:53.238Z,7.17
2018-05-31T16:57:22.652Z,3.70
2018-05-31T16:59:52.769Z,5.50
2018-05-31T17:02:22.177Z,3.93
2018-05-31T17:04:51.583Z,3.97
2018-05-31T17:07:21.702Z,3.77
2018-05-31T17:09:51.011Z,6.20
2018-05-31T17:12:21.226Z,6.60
2018-05-31T17:14:50.646Z,4.27
2018-05-31T17:17:20.032Z,4.47
2018-05-31T17:19:49.435Z,4.43
2018-05-31T17:22:18.738Z,3.27
2018-05-31T17:24:48.039Z,3.70
2018-05-31T17:27:17.343Z,4.23
2018-05-31T17:29:47.460Z,3.37
2018-05-31T17:32:16.760Z,5.27
2018-05-31T17:34:46.882Z,11.93
2018-05-31T17:37:17.002Z,8.20
2018-05-31T17:39:46.411Z,7.80
2018-05-31T17:42:16.526Z,7.87
2018-05-31T17:44:46.603Z,6.83
2018-05-31T17:47:15.948Z,7.50
2018-05-31T17:49:45.249Z,6.67
2018-05-31T17:52:14.550Z,5.37
2018-05-31T17:54:43.853Z,5.33
2018-05-31T17:57:13.153Z,3.83
2018-05-31T17:59:42.505Z,4.60
2018-05-31T18:02:11.857Z,4.50
2018-05-31T18:04:41.152Z,3.50
2018-05-31T18:07:10.444Z,5.13
2018-05-31T18:09:39.760Z,5.47
2018-05-31T18:12:09.062Z,4.73
2018-05-31T18:14:38.370Z,4.17
2018-05-31T18:17:08.482Z,5.27
2018-05-31T18:19:37.773Z,5.97
2018-05-31T18:22:07.085Z,3.90
2018-05-31T18:24:36.479Z,7.33
2018-05-31T18:27:05.893Z,5.73
2018-05-31T18:29:35.241Z,4.93
2018-05-31T18:32:04.597Z,5.57
2018-05-31T18:34:33.892Z,6.37
2018-05-31T18:37:03.303Z,6.77
2018-05-31T18:39:33.423Z,6.30
2018-05-31T18:42:02.826Z,6.47
2018-05-31T18:44:32.134Z,6.00
2018-05-31T18:47:02.248Z,7.00
2018-05-31T18:49:31.653Z,8.47
2018-05-31T18:52:01.057Z,11.17
2018-05-31T18:54:30.443Z,13.50
2018-05-31T18:56:59.860Z,6.67
2018-05-31T18:59:29.286Z,9.70
2018-05-31T19:01:59.390Z,7.30
2018-05-31T19:04:28.681Z,7.90
2018-05-31T19:06:58.152Z,7.37
2018-05-31T19:09:33.026Z,8.27
2018-05-31T19:12:02.327Z,8.40
2018-05-31T19:14:32.652Z,8.47
2018-05-31T19:17:02.063Z,6.20
2018-05-31T19:19:37.676Z,8.00
2018-05-31T19:22:07.109Z,5.37
2018-05-31T19:24:42.043Z,5.50
2018-05-31T19:27:11.444Z,5.93
2018-05-31T19:29:40.849Z,5.83
2018-05-31T19:32:10.288Z,7.20
2018-05-31T19:34:39.670Z,6.10
2018-05-31T19:37:13.658Z,6.73
2018-05-31T19:39:42.987Z,7.27
2018-05-31T19:42:17.973Z,9.40
2018-05-31T19:44:47.303Z,8.23
2018-05-31T19:47:16.596Z,8.03
2018-05-31T19:49:46.013Z,8.17
2018-05-31T19:52:20.887Z,7.90
2018-05-31T19:54:50.250Z,6.70
2018-05-31T19:57:20.367Z,7.70
2018-05-31T20:02:54.999Z,7.70
2018-05-31T20:05:24.315Z,7.80
2018-05-31T20:07:53.616Z,9.37
2018-05-31T20:10:23.020Z,7.23
2018-05-31T20:12:57.237Z,8.47
2018-05-31T20:15:26.627Z,11.87
2018-05-31T20:17:56.043Z,9.70
2018-05-31T20:20:25.452Z,8.77
2018-05-31T20:22:54.850Z,7.73
2018-05-31T20:25:24.139Z,7.23
2018-05-31T20:27:53.453Z,7.57
2018-05-31T20:30:22.959Z,6.27
2018-05-31T20:32:53.084Z,6.13
2018-05-31T20:35:23.202Z,9.53
2018-05-31T20:37:52.440Z,9.00
2018-05-31T20:40:21.803Z,7.70
2018-05-31T20:42:51.206Z,9.87
2018-05-31T20:45:20.489Z,5.93
2018-05-31T20:47:49.815Z,7.47
2018-05-31T20:50:19.928Z,8.33
2018-05-31T20:52:49.339Z,7.00
2018-05-31T20:55:19.454Z,6.23
2018-05-31T20:57:48.855Z,6.17
2018-05-31T21:00:18.160Z,7.50
2018-05-31T21:02:47.563Z,7.33
2018-05-31T21:05:16.864Z,7.13
2018-05-31T21:07:46.163Z,6.77
2018-05-31T21:10:15.567Z,7.60
2018-05-31T21:12:44.868Z,8.57
2018-05-31T21:15:14.170Z,7.53
2018-05-31T21:17:43.463Z,6.83
2018-05-31T21:20:12.758Z,10.03
2018-05-31T21:22:42.078Z,8.90
2018-05-31T21:25:12.195Z,8.67
2018-05-31T21:27:41.598Z,7.47
2018-05-31T21:30:11.719Z,7.83
2018-05-31T21:32:41.123Z,11.20
2018-05-31T21:35:10.427Z,10.37
2018-05-31T21:37:39.829Z,9.33
2018-05-31T21:40:09.888Z,7.23
2018-05-31T21:42:39.250Z,5.87
2018-05-31T21:45:09.363Z,7.20
2018-05-31T21:47:38.676Z,8.83
2018-05-31T21:50:08.738Z,6.63
2018-05-31T21:52:38.104Z,5.03
2018-05-31T21:55:07.497Z,6.03
2018-05-31T21:57:37.719Z,5.47
2018-05-31T22:00:07.225Z,7.90
2018-05-31T22:02:36.632Z,8.10
2018-05-31T22:05:06.035Z,6.97
2018-05-31T22:07:35.332Z,5.80
2018-05-31T22:10:04.688Z,5.20
2018-05-31T22:12:34.082Z,6.73
2018-05-31T22:15:03.441Z,6.73
2018-05-31T22:17:32.844Z,5.07
2018-05-31T22:20:03.072Z,7.07
2018-05-31T22:22:33.134Z,6.83
2018-05-31T22:25:02.486Z,7.10
2018-05-31T22:27:31.878Z,4.13
2018-05-31T22:30:01.194Z,5.83
2018-05-31T22:32:30.484Z,5.27
2018-05-31T22:34:59.902Z,5.03
2018-05-31T22:37:29.199Z,2.93
2018-05-31T22:39:58.501Z,6.53
2018-05-31T22:42:27.801Z,6.67
2018-05-31T22:44:57.208Z,6.20
2018-05-31T22:47:27.326Z,6.80
2018-05-31T22:49:56.718Z,11.80
2018-05-31T22:52:26.032Z,10.80
2018-05-31T22:54:55.436Z,10.20
2018-05-31T22:57:24.736Z,8.57
2018-05-31T22:59:54.032Z,7.97
2018-05-31T23:02:23.344Z,6.07
2018-05-31T23:04:53.459Z,8.63
2018-05-31T23:07:22.760Z,5.70
2018-05-31T23:09:52.884Z,7.13
2018-05-31T23:12:22.282Z,6.93
2018-05-31T23:14:53.122Z,5.27
2018-05-31T23:17:22.523Z,7.10
2018-05-31T23:19:51.929Z,5.80
2018-05-31T23:22:22.049Z,6.33
2018-05-31T23:24:51.452Z,5.93
2018-05-31T23:27:21.675Z,5.83
2018-05-31T23:29:51.793Z,11.37
2018-05-31T23:32:21.202Z,7.80
2018-05-31T23:34:51.262Z,9.17
2018-05-31T23:37:20.518Z,9.83
2018-05-31T23:39:50.604Z,6.27
2018-05-31T23:42:19.880Z,9.97
2018-05-31T23:44:49.186Z,8.97
2018-05-31T23:47:18.426Z,9.20
2018-05-31T23:49:47.740Z,8.93
2018-05-31T23:52:17.041Z,9.43
2018-05-31T23:54:47.151Z,9.53
2018-05-31T23:57:16.463Z,5.13
2018-05-31T23:59:46.584Z,8.30
